createdAt,value
2019-05-19T00:00:40.977Z,30.10
2019-05-19T00:03:09.597Z,31.70
2019-05-19T00:05:37.975Z,29.50
2019-05-19T00:08:06.374Z,30.67
2019-05-19T00:10:36.549Z,29.40
2019-05-19T00:13:04.936Z,28.90
2019-05-19T00:15:33.433Z,30.20
2019-05-19T00:18:01.919Z,28.53
2019-05-19T00:20:30.514Z,30.20
2019-05-19T00:22:58.935Z,31.20
2019-05-19T00:25:27.432Z,31.87
2019-05-19T00:27:56.618Z,29.10
2019-05-19T00:30:25.616Z,29.07
2019-05-19T00:32:54.128Z,28.87
2019-05-19T00:35:22.541Z,30.97
2019-05-19T00:37:51.029Z,29.93
2019-05-19T00:40:19.479Z,30.47
2019-05-19T00:42:48.503Z,31.20
2019-05-19T00:45:17.155Z,30.23
2019-05-19T00:47:45.520Z,30.53
2019-05-19T00:50:14.100Z,31.67
2019-05-19T00:52:42.588Z,30.23
2019-05-19T00:55:11.199Z,32.33
2019-05-19T00:57:39.728Z,30.80
2019-05-19T01:00:09.136Z,30.30
2019-05-19T01:02:37.726Z,27.47
2019-05-19T01:05:07.313Z,30.10
2019-05-19T01:07:35.745Z,30.00
2019-05-19T01:10:05.447Z,29.00
2019-05-19T01:12:34.023Z,31.97
2019-05-19T01:15:05.324Z,29.90
2019-05-19T01:17:33.832Z,31.70
2019-05-19T01:20:02.383Z,29.90
2019-05-19T01:22:30.836Z,27.70
2019-05-19T01:24:59.307Z,28.37
2019-05-19T01:27:27.793Z,30.07
2019-05-19T01:29:56.177Z,29.13
2019-05-19T01:32:24.674Z,29.57
2019-05-19T01:34:53.272Z,29.37
2019-05-19T01:37:21.777Z,28.63
2019-05-19T01:39:51.944Z,28.97
2019-05-19T01:42:20.479Z,29.63
2019-05-19T01:44:48.877Z,27.67
2019-05-19T01:47:17.346Z,29.10
2019-05-19T01:49:45.752Z,28.90
2019-05-19T01:52:14.216Z,29.73
2019-05-19T01:54:44.403Z,31.83
2019-05-19T01:57:12.880Z,30.60
2019-05-19T01:59:41.266Z,29.00
2019-05-19T02:02:09.773Z,29.50
2019-05-19T02:04:38.276Z,31.13
2019-05-19T02:07:06.747Z,27.50
2019-05-19T02:09:35.140Z,31.20
2019-05-19T02:12:03.613Z,31.60
2019-05-19T02:14:32.084Z,27.97
2019-05-19T02:17:00.559Z,28.50
2019-05-19T02:19:29.020Z,28.67
2019-05-19T02:21:57.536Z,28.00
2019-05-19T02:24:26.000Z,30.97
2019-05-19T02:26:55.555Z,28.07
2019-05-19T02:29:24.034Z,28.63
2019-05-19T02:31:52.488Z,30.23
2019-05-19T02:34:20.876Z,29.53
2019-05-19T02:36:50.664Z,30.30
2019-05-19T02:39:19.037Z,28.13
2019-05-19T02:41:48.871Z,29.50
2019-05-19T02:44:18.764Z,30.00
2019-05-19T02:46:47.839Z,26.77
2019-05-19T02:49:18.520Z,29.43
2019-05-19T02:51:48.740Z,28.87
2019-05-19T02:54:18.847Z,27.80
2019-05-19T02:56:54.662Z,29.30
2019-05-19T02:59:24.155Z,29.80
2019-05-19T03:02:06.836Z,28.93
2019-05-19T03:04:35.272Z,29.93
2019-05-19T03:07:05.437Z,28.57
2019-05-19T03:09:33.912Z,27.77
2019-05-19T03:12:02.403Z,28.27
2019-05-19T03:14:30.784Z,29.93
2019-05-19T03:16:59.154Z,27.37
2019-05-19T03:19:28.029Z,28.27
2019-05-19T03:21:56.445Z,26.70
2019-05-19T03:24:24.931Z,28.53
2019-05-19T03:26:56.895Z,29.20
2019-05-19T03:29:30.593Z,28.60
2019-05-19T03:32:14.941Z,27.77
2019-05-19T03:34:43.312Z,27.47
2019-05-19T03:37:11.785Z,28.07
2019-05-19T03:39:40.262Z,31.60
2019-05-19T03:42:10.579Z,28.47
2019-05-19T03:44:40.826Z,27.50
2019-05-19T03:47:10.974Z,29.43
2019-05-19T03:49:41.184Z,30.10
2019-05-19T03:52:09.570Z,28.33
2019-05-19T03:54:38.352Z,28.93
2019-05-19T03:57:06.774Z,30.80
2019-05-19T03:59:35.157Z,28.50
2019-05-19T04:02:03.551Z,27.07
2019-05-19T04:04:32.021Z,29.00
2019-05-19T04:07:00.500Z,26.97
2019-05-19T04:09:30.478Z,30.03
2019-05-19T04:11:59.032Z,28.00
2019-05-19T04:14:27.408Z,27.23
2019-05-19T04:16:55.837Z,27.80
2019-05-19T04:19:24.318Z,27.97
2019-05-19T04:21:52.733Z,27.70
2019-05-19T04:24:21.226Z,28.30
2019-05-19T04:26:57.990Z,27.10
2019-05-19T04:29:27.273Z,28.90
2019-05-19T04:31:55.837Z,26.17
2019-05-19T04:34:24.696Z,27.13
2019-05-19T04:36:53.660Z,26.57
2019-05-19T04:39:22.158Z,27.93
2019-05-19T04:41:51.516Z,28.00
2019-05-19T04:44:19.882Z,27.53
2019-05-19T04:46:48.262Z,27.33
2019-05-19T04:49:17.043Z,28.00
2019-05-19T04:51:45.472Z,28.93
2019-05-19T04:54:14.058Z,26.30
2019-05-19T04:56:43.957Z,30.13
2019-05-19T04:59:12.874Z,27.07
2019-05-19T05:01:41.308Z,29.23
2019-05-19T05:04:09.690Z,27.30
2019-05-19T05:06:38.071Z,27.97
2019-05-19T05:09:06.598Z,28.20
2019-05-19T05:11:35.119Z,25.73
2019-05-19T05:14:03.921Z,24.27
2019-05-19T05:16:32.404Z,25.93
2019-05-19T05:19:00.792Z,26.30
2019-05-19T05:21:29.342Z,25.10
2019-05-19T05:23:58.181Z,25.87
2019-05-19T05:26:26.696Z,27.20
2019-05-19T05:28:55.386Z,27.53
2019-05-19T05:31:23.867Z,27.30
2019-05-19T05:33:52.263Z,25.50
2019-05-19T05:36:21.397Z,25.80
2019-05-19T05:38:50.190Z,25.40
2019-05-19T05:41:18.679Z,25.97
2019-05-19T05:43:47.243Z,25.60
2019-05-19T05:46:16.540Z,26.47
2019-05-19T05:48:45.432Z,26.03
2019-05-19T05:51:13.910Z,26.63
2019-05-19T05:53:42.312Z,27.60
2019-05-19T05:56:10.693Z,24.30
2019-05-19T05:58:39.542Z,26.10
2019-05-19T06:01:09.283Z,26.47
2019-05-19T06:03:37.764Z,26.10
2019-05-19T06:06:06.160Z,23.90
2019-05-19T06:08:34.632Z,26.43
2019-05-19T06:11:03.329Z,25.97
2019-05-19T06:13:31.897Z,25.40
2019-05-19T06:16:02.242Z,24.70
2019-05-19T06:18:31.356Z,25.33
2019-05-19T06:21:00.833Z,26.20
2019-05-19T06:23:30.922Z,26.00
2019-05-19T06:26:00.690Z,24.63
2019-05-19T06:28:30.277Z,25.47
2019-05-19T06:31:00.912Z,25.60
2019-05-19T06:33:29.503Z,25.60
2019-05-19T06:35:58.135Z,25.20
2019-05-19T06:38:28.602Z,25.90
2019-05-19T06:40:59.244Z,24.33
2019-05-19T06:43:28.200Z,24.87
2019-05-19T06:45:57.356Z,26.37
2019-05-19T06:48:26.769Z,23.50
2019-05-19T06:50:55.479Z,25.90
2019-05-19T06:53:23.978Z,27.90
2019-05-19T06:55:53.103Z,27.00
2019-05-19T06:58:21.602Z,29.87
2019-05-19T07:00:50.167Z,30.70
2019-05-19T07:03:19.543Z,30.40
2019-05-19T07:05:47.927Z,32.40
2019-05-19T07:08:16.420Z,32.03
2019-05-19T07:10:44.811Z,32.00
2019-05-19T07:13:13.700Z,33.57
2019-05-19T07:15:42.185Z,30.50
2019-05-19T07:18:10.786Z,34.00
2019-05-19T07:20:39.624Z,32.00
2019-05-19T07:23:08.229Z,32.97
2019-05-19T07:25:36.654Z,30.30
2019-05-19T07:28:05.144Z,33.23
2019-05-19T07:30:33.564Z,32.27
2019-05-19T07:33:02.467Z,32.60
2019-05-19T07:35:30.879Z,34.40
2019-05-19T07:37:59.455Z,32.00
2019-05-19T07:40:28.744Z,33.30
2019-05-19T07:42:59.059Z,33.90
2019-05-19T07:45:27.691Z,34.83
2019-05-19T07:47:56.605Z,32.10
2019-05-19T07:50:25.102Z,34.47
2019-05-19T07:52:53.840Z,33.20
2019-05-19T07:55:22.817Z,32.87
2019-05-19T07:57:51.432Z,33.10
2019-05-19T08:00:20.471Z,31.73
2019-05-19T08:02:49.169Z,34.97
2019-05-19T08:05:17.585Z,36.47
2019-05-19T08:07:46.032Z,35.17
2019-05-19T08:10:14.503Z,34.30
2019-05-19T08:12:43.054Z,32.57
2019-05-19T08:15:11.698Z,35.37
2019-05-19T08:17:40.101Z,32.77
2019-05-19T08:20:09.864Z,33.60
2019-05-19T08:22:38.449Z,33.57
2019-05-19T08:25:07.182Z,32.90
2019-05-19T08:27:35.669Z,32.13
2019-05-19T08:30:04.913Z,32.93
2019-05-19T08:32:34.898Z,32.40
2019-05-19T08:35:04.463Z,30.10
2019-05-19T08:37:33.698Z,30.70
2019-05-19T08:40:02.187Z,31.80
2019-05-19T08:42:30.776Z,29.83
2019-05-19T08:44:59.898Z,30.97
2019-05-19T08:47:28.817Z,32.60
2019-05-19T08:49:57.506Z,28.30
2019-05-19T08:52:25.996Z,30.60
2019-05-19T08:54:54.574Z,30.40
2019-05-19T08:57:22.982Z,29.23
2019-05-19T08:59:53.176Z,29.73
2019-05-19T09:02:21.821Z,26.60
2019-05-19T09:04:50.320Z,29.03
2019-05-19T09:07:18.813Z,25.13
2019-05-19T09:09:47.274Z,26.50
2019-05-19T09:12:15.791Z,26.43
2019-05-19T09:14:44.374Z,27.60
2019-05-19T09:17:12.797Z,25.13
2019-05-19T09:19:41.233Z,25.97
2019-05-19T09:22:09.863Z,24.97
2019-05-19T09:24:38.362Z,25.03
2019-05-19T09:27:08.963Z,24.27
2019-05-19T09:29:38.953Z,23.33
2019-05-19T09:32:07.353Z,24.63
2019-05-19T09:34:35.744Z,22.80
2019-05-19T09:37:04.737Z,21.90
2019-05-19T09:39:33.985Z,23.03
2019-05-19T09:42:02.517Z,22.43
2019-05-19T09:44:30.942Z,24.03
2019-05-19T09:46:59.638Z,21.40
2019-05-19T09:49:31.703Z,22.07
2019-05-19T09:52:03.587Z,20.50
2019-05-19T09:54:44.213Z,19.50
2019-05-19T09:57:08.263Z,19.83
2019-05-19T09:59:36.680Z,18.93
2019-05-19T10:02:05.248Z,19.30
2019-05-19T10:04:33.843Z,19.00
2019-05-19T10:07:03.299Z,19.83
2019-05-19T10:10:05.377Z,20.73
2019-05-19T10:12:33.868Z,22.43
2019-05-19T10:15:02.891Z,19.17
2019-05-19T10:17:31.617Z,18.80
2019-05-19T10:20:00.001Z,18.80
2019-05-19T10:22:28.499Z,18.20
2019-05-19T10:25:18.179Z,18.00
2019-05-19T10:27:27.778Z,18.93
2019-05-19T10:29:57.389Z,20.60
2019-05-19T10:32:26.043Z,19.13
2019-05-19T10:34:54.466Z,20.07
2019-05-19T10:37:23.612Z,20.67
2019-05-19T10:39:53.839Z,22.27
2019-05-19T10:42:22.384Z,19.30
2019-05-19T10:44:50.948Z,20.40
2019-05-19T10:47:19.427Z,19.63
2019-05-19T10:49:47.991Z,20.40
2019-05-19T10:52:16.666Z,19.67
2019-05-19T10:54:45.225Z,18.93
2019-05-19T10:57:14.881Z,20.23
2019-05-19T10:59:43.584Z,20.40
2019-05-19T11:02:13.803Z,19.67
2019-05-19T11:04:42.542Z,20.67
2019-05-19T11:07:11.119Z,20.73
2019-05-19T11:09:39.706Z,18.93
2019-05-19T11:12:08.273Z,20.23
2019-05-19T11:14:36.953Z,20.83
2019-05-19T11:17:05.318Z,19.23
2019-05-19T11:19:34.223Z,20.37
2019-05-19T11:22:03.145Z,19.00
2019-05-19T11:24:33.134Z,18.57
2019-05-19T11:27:06.213Z,18.60
2019-05-19T11:29:37.117Z,18.57
2019-05-19T11:32:05.518Z,17.00
2019-05-19T11:34:33.891Z,16.50
2019-05-19T11:37:02.298Z,17.10
2019-05-19T11:39:30.686Z,16.60
2019-05-19T11:41:59.242Z,18.17
2019-05-19T11:44:27.622Z,16.60
2019-05-19T11:46:56.062Z,14.83
2019-05-19T11:49:26.253Z,15.07
2019-05-19T11:51:54.793Z,13.70
2019-05-19T11:54:25.242Z,13.60
2019-05-19T11:56:56.463Z,13.43
2019-05-19T11:59:25.548Z,14.40
2019-05-19T12:01:54.031Z,15.80
2019-05-19T12:04:22.433Z,15.50
2019-05-19T12:06:50.830Z,13.70
2019-05-19T12:09:19.348Z,15.07
2019-05-19T12:11:47.779Z,16.03
2019-05-19T12:14:18.120Z,18.07
2019-05-19T12:16:48.355Z,13.93
2019-05-19T12:19:16.973Z,16.37
2019-05-19T12:21:45.576Z,16.30
2019-05-19T12:24:13.976Z,18.93
2019-05-19T12:26:43.900Z,14.87
2019-05-19T12:29:12.802Z,14.80
2019-05-19T12:31:41.467Z,15.90
2019-05-19T12:34:09.964Z,15.20
2019-05-19T12:36:39.499Z,15.67
2019-05-19T12:39:08.111Z,16.83
2019-05-19T12:41:36.681Z,15.90
2019-05-19T12:44:05.228Z,16.90
2019-05-19T12:46:34.068Z,16.83
2019-05-19T12:49:02.637Z,16.70
2019-05-19T12:51:31.216Z,17.30
2019-05-19T12:53:59.612Z,17.00
2019-05-19T12:56:39.047Z,14.93
2019-05-19T12:58:58.838Z,15.90
2019-05-19T13:01:27.580Z,17.00
2019-05-19T13:03:56.097Z,17.80
2019-05-19T13:06:25.097Z,20.03
2019-05-19T13:08:53.523Z,17.33
2019-05-19T13:11:21.998Z,23.30
2019-05-19T13:13:52.262Z,20.77
2019-05-19T13:16:20.692Z,20.83
2019-05-19T13:18:49.188Z,18.50
2019-05-19T13:21:17.707Z,20.67
2019-05-19T13:23:46.264Z,21.17
2019-05-19T13:26:14.754Z,22.00
2019-05-19T13:28:43.256Z,19.30
2019-05-19T13:31:11.653Z,19.17
2019-05-19T13:33:40.149Z,15.83
2019-05-19T13:36:08.651Z,13.80
2019-05-19T13:38:37.142Z,13.70
2019-05-19T13:41:06.163Z,13.17
2019-05-19T13:43:34.794Z,12.80
2019-05-19T13:46:03.169Z,13.70
2019-05-19T13:48:31.986Z,13.83
2019-05-19T13:51:00.362Z,16.80
2019-05-19T13:53:28.907Z,18.00
2019-05-19T13:55:57.408Z,17.63
2019-05-19T13:58:25.932Z,15.73
2019-05-19T14:00:54.343Z,15.53
2019-05-19T14:03:22.834Z,13.47
2019-05-19T14:05:51.318Z,12.13
2019-05-19T14:08:20.164Z,10.87
2019-05-19T14:10:50.341Z,13.37
2019-05-19T14:13:19.461Z,11.90
2019-05-19T14:15:47.940Z,11.93
2019-05-19T14:18:16.436Z,10.50
2019-05-19T14:20:44.935Z,11.73
2019-05-19T14:23:15.182Z,12.90
2019-05-19T14:25:43.943Z,12.77
2019-05-19T14:28:12.495Z,12.40
2019-05-19T14:30:42.023Z,15.50
2019-05-19T14:33:10.609Z,14.33
2019-05-19T14:35:39.041Z,11.20
2019-05-19T14:38:09.217Z,12.20
2019-05-19T14:40:37.700Z,12.53
2019-05-19T14:43:06.227Z,12.67
2019-05-19T14:45:36.447Z,12.90
2019-05-19T14:48:05.046Z,11.77
2019-05-19T14:50:35.249Z,12.67
2019-05-19T14:53:04.370Z,12.50
2019-05-19T14:55:34.563Z,12.03
2019-05-19T14:58:02.949Z,9.23
2019-05-19T15:00:31.430Z,9.17
2019-05-19T15:03:00.085Z,8.77
2019-05-19T15:05:29.566Z,7.80
2019-05-19T15:07:58.141Z,7.70
2019-05-19T15:10:26.540Z,12.97
2019-05-19T15:12:55.113Z,8.83
2019-05-19T15:15:24.093Z,7.90
2019-05-19T15:17:54.312Z,8.97
2019-05-19T15:20:24.738Z,8.27
2019-05-19T15:22:53.912Z,8.30
2019-05-19T15:25:22.767Z,10.30
2019-05-19T15:28:00.264Z,8.73
2019-05-19T15:30:23.477Z,9.70
2019-05-19T15:32:52.027Z,11.33
2019-05-19T15:35:20.610Z,11.87
2019-05-19T15:37:49.633Z,12.73
2019-05-19T15:40:18.141Z,12.83
2019-05-19T15:42:47.154Z,12.00
2019-05-19T15:45:15.815Z,11.70
2019-05-19T15:47:44.233Z,13.50
2019-05-19T15:50:16.567Z,13.50
2019-05-19T15:52:45.420Z,12.67
2019-05-19T15:55:14.208Z,10.97
2019-05-19T15:57:44.458Z,12.17
2019-05-19T16:00:13.679Z,12.63
2019-05-19T16:02:44.076Z,12.60
2019-05-19T16:05:13.217Z,12.43
2019-05-19T16:07:42.658Z,11.27
2019-05-19T16:10:12.741Z,12.50
2019-05-19T16:12:42.337Z,12.20
2019-05-19T16:15:13.399Z,11.77
2019-05-19T16:17:43.686Z,11.20
2019-05-19T16:20:12.741Z,11.77
2019-05-19T16:22:41.707Z,10.83
2019-05-19T16:25:10.277Z,9.77
2019-05-19T16:27:38.734Z,11.90
2019-05-19T16:30:08.193Z,10.90
2019-05-19T16:32:36.852Z,11.13
2019-05-19T16:35:05.823Z,12.17
2019-05-19T16:37:34.321Z,10.53
2019-05-19T16:40:05.180Z,11.30
2019-05-19T16:42:34.016Z,10.67
2019-05-19T16:45:04.477Z,10.70
2019-05-19T16:47:33.164Z,10.03
2019-05-19T16:50:01.575Z,12.43
2019-05-19T16:52:30.054Z,10.50
2019-05-19T16:55:17.281Z,11.07
2019-05-19T16:57:47.980Z,11.07
2019-05-19T17:00:16.651Z,12.10
2019-05-19T17:02:45.244Z,10.80
2019-05-19T17:05:15.547Z,10.80
2019-05-19T17:07:43.928Z,11.03
2019-05-19T17:10:12.839Z,10.70
2019-05-19T17:12:41.665Z,10.60
2019-05-19T17:15:10.528Z,13.70
2019-05-19T17:17:38.933Z,11.10
2019-05-19T17:20:09.528Z,10.27
2019-05-19T17:22:38.046Z,11.33
2019-05-19T17:25:08.463Z,10.20
2019-05-19T17:27:36.956Z,9.63
2019-05-19T17:30:06.101Z,11.30
2019-05-19T17:32:35.617Z,10.83
2019-05-19T17:35:04.382Z,10.23
2019-05-19T17:37:32.795Z,10.50
2019-05-19T17:40:01.278Z,11.70
2019-05-19T17:42:30.553Z,11.53
2019-05-19T17:44:58.984Z,10.80
2019-05-19T17:47:27.360Z,12.40
2019-05-19T17:49:55.856Z,10.37
2019-05-19T17:52:24.244Z,11.30
2019-05-19T17:54:53.034Z,11.90
2019-05-19T17:57:24.907Z,12.53
2019-05-19T17:59:53.984Z,12.20
2019-05-19T18:02:22.569Z,12.23
2019-05-19T18:04:51.085Z,12.67
2019-05-19T18:07:19.473Z,11.03
2019-05-19T18:09:47.862Z,12.23
2019-05-19T18:12:16.435Z,12.83
2019-05-19T18:14:44.928Z,11.97
2019-05-19T18:17:15.134Z,13.57
2019-05-19T18:19:43.509Z,14.40
2019-05-19T18:22:11.933Z,14.13
2019-05-19T18:24:40.513Z,14.47
2019-05-19T18:27:12.255Z,15.37
2019-05-19T18:29:42.401Z,14.50
2019-05-19T18:32:12.817Z,13.57
2019-05-19T18:34:41.192Z,13.57
2019-05-19T18:37:09.807Z,14.03
2019-05-19T18:39:38.205Z,14.40
2019-05-19T18:42:06.624Z,16.20
2019-05-19T18:44:35.239Z,14.97
2019-05-19T18:47:05.401Z,16.20
2019-05-19T18:49:34.058Z,15.73
2019-05-19T18:52:02.548Z,17.00
2019-05-19T18:54:31.049Z,16.20
2019-05-19T18:56:59.559Z,15.80
2019-05-19T18:59:28.221Z,18.77
2019-05-19T19:01:56.674Z,16.50
2019-05-19T19:04:25.063Z,16.63
2019-05-19T19:06:53.906Z,16.97
2019-05-19T19:09:22.281Z,17.43
2019-05-19T19:11:50.748Z,16.97
2019-05-19T19:14:19.232Z,13.80
2019-05-19T19:16:47.770Z,11.70
2019-05-19T19:19:16.246Z,11.07
2019-05-19T19:21:44.656Z,10.33
2019-05-19T19:24:13.696Z,9.60
2019-05-19T19:26:42.631Z,10.53
2019-05-19T19:29:11.342Z,10.00
2019-05-19T19:31:48.726Z,11.23
2019-05-19T19:34:12.080Z,10.73
2019-05-19T19:36:40.802Z,11.70
2019-05-19T19:39:09.508Z,10.80
2019-05-19T19:41:38.000Z,13.70
2019-05-19T19:44:06.410Z,12.57
2019-05-19T19:46:34.895Z,12.90
2019-05-19T19:49:03.281Z,12.73
2019-05-19T19:51:31.686Z,15.80
2019-05-19T19:54:00.310Z,15.73
2019-05-19T19:56:28.912Z,19.27
2019-05-19T19:58:57.286Z,17.20
2019-05-19T20:01:26.161Z,17.03
2019-05-19T20:03:55.459Z,18.00
2019-05-19T20:06:24.355Z,17.43
2019-05-19T20:08:52.756Z,16.07
2019-05-19T20:11:22.190Z,14.83
2019-05-19T20:13:50.613Z,16.40
2019-05-19T20:16:20.786Z,15.80
2019-05-19T20:18:49.192Z,15.13
2019-05-19T20:21:18.690Z,13.90
2019-05-19T20:23:47.246Z,13.63
2019-05-19T20:26:16.318Z,14.53
2019-05-19T20:28:44.741Z,14.63
2019-05-19T20:31:13.107Z,14.27
2019-05-19T20:33:41.665Z,13.87
2019-05-19T20:36:10.646Z,14.43
2019-05-19T20:38:39.152Z,15.07
2019-05-19T20:41:07.652Z,15.67
2019-05-19T20:43:36.217Z,16.10
2019-05-19T20:46:04.606Z,13.97
2019-05-19T20:48:33.032Z,15.80
2019-05-19T20:51:01.647Z,16.70
2019-05-19T20:53:30.066Z,15.30
2019-05-19T20:55:58.552Z,16.87
2019-05-19T20:58:27.031Z,15.63
2019-05-19T21:00:56.350Z,15.87
2019-05-19T21:03:24.737Z,16.80
2019-05-19T21:05:53.209Z,14.10
2019-05-19T21:08:21.593Z,15.07
2019-05-19T21:10:50.080Z,15.40
2019-05-19T21:13:18.499Z,15.50
2019-05-19T21:15:46.977Z,15.40
2019-05-19T21:18:15.740Z,16.93
2019-05-19T21:20:44.175Z,18.20
2019-05-19T21:23:13.354Z,15.73
2019-05-19T21:25:41.745Z,16.83
2019-05-19T21:28:10.120Z,17.80
2019-05-19T21:30:38.534Z,16.60
2019-05-19T21:33:07.019Z,16.10
2019-05-19T21:35:35.409Z,15.10
2019-05-19T21:38:03.889Z,16.40
2019-05-19T21:40:32.679Z,16.07
2019-05-19T21:43:01.258Z,17.07
2019-05-19T21:45:29.658Z,16.70
2019-05-19T21:47:58.124Z,17.40
2019-05-19T21:50:26.709Z,13.83
2019-05-19T21:52:56.933Z,15.13
2019-05-19T21:55:25.547Z,16.90
2019-05-19T21:57:54.051Z,15.23
2019-05-19T22:00:28.948Z,14.77
2019-05-19T22:02:57.478Z,16.37
2019-05-19T22:05:25.918Z,15.60
2019-05-19T22:08:23.178Z,16.60
2019-05-19T22:10:51.570Z,15.90
2019-05-19T22:13:20.884Z,17.40
2019-05-19T22:15:49.260Z,16.93
2019-05-19T22:18:17.632Z,15.43
2019-05-19T22:20:46.150Z,16.67
2019-05-19T22:23:14.520Z,15.03
2019-05-19T22:25:45.201Z,16.70
2019-05-19T22:28:13.580Z,16.67
2019-05-19T22:30:42.460Z,17.40
2019-05-19T22:33:10.919Z,15.60
2019-05-19T22:35:39.573Z,15.83
2019-05-19T22:38:09.524Z,15.90
2019-05-19T22:40:38.294Z,16.70
2019-05-19T22:43:06.667Z,15.67
2019-05-19T22:45:35.475Z,15.90
2019-05-19T22:48:03.951Z,16.27
2019-05-19T22:50:32.313Z,14.63
2019-05-19T22:53:00.729Z,17.33
2019-05-19T22:55:29.110Z,14.77
2019-05-19T22:57:57.524Z,13.63
2019-05-19T23:00:26.401Z,15.17
2019-05-19T23:02:54.887Z,12.97
2019-05-19T23:05:23.298Z,13.77
2019-05-19T23:07:51.648Z,14.20
2019-05-19T23:10:20.833Z,13.00
2019-05-19T23:12:51.110Z,11.87
2019-05-19T23:15:20.110Z,12.30
2019-05-19T23:17:48.487Z,13.80
2019-05-19T23:20:16.983Z,11.23
2019-05-19T23:22:45.550Z,12.90
2019-05-19T23:25:14.253Z,12.67
2019-05-19T23:27:42.725Z,13.20
2019-05-19T23:30:13.201Z,12.93
2019-05-19T23:32:41.758Z,12.33
2019-05-19T23:35:10.849Z,11.80
2019-05-19T23:37:39.230Z,13.27
2019-05-19T23:40:08.920Z,12.77
2019-05-19T23:42:37.279Z,16.50
2019-05-19T23:45:06.514Z,16.53
2019-05-19T23:47:35.045Z,15.50
2019-05-19T23:50:03.802Z,15.17
2019-05-19T23:52:32.433Z,17.10
2019-05-19T23:55:01.029Z,15.33
2019-05-19T23:57:36.583Z,15.80
